createdAt,value
2019-05-10T00:00:04.721Z,996.05
2019-05-10T00:01:04.712Z,996.07
2019-05-10T00:02:04.729Z,996.06
2019-05-10T00:03:04.699Z,996.06
2019-05-10T00:04:04.678Z,996.01
2019-05-10T00:05:04.667Z,996.08
2019-05-10T00:06:04.657Z,996.04
2019-05-10T00:07:04.656Z,996.09
2019-05-10T00:08:04.643Z,996.05
2019-05-10T00:09:04.625Z,996.07
2019-05-10T00:10:04.612Z,996.08
2019-05-10T00:11:04.602Z,996.11
2019-05-10T00:12:04.591Z,996.09
2019-05-10T00:13:04.596Z,996.11
2019-05-10T00:14:04.576Z,996.11
2019-05-10T00:15:04.560Z,996.16
2019-05-10T00:16:04.548Z,996.10
2019-05-10T00:17:04.541Z,996.10
2019-05-10T00:18:04.551Z,996.12
2019-05-10T00:19:04.520Z,996.13
2019-05-10T00:20:04.507Z,996.06
2019-05-10T00:21:04.499Z,996.10
2019-05-10T00:22:04.485Z,996.10
2019-05-10T00:23:04.473Z,996.13
2019-05-10T00:24:04.475Z,996.13
2019-05-10T00:25:05.220Z,996.18
2019-05-10T00:26:04.440Z,996.19
2019-05-10T00:27:04.429Z,996.19
2019-05-10T00:28:04.419Z,996.18
2019-05-10T00:29:04.428Z,996.21
2019-05-10T00:30:04.399Z,996.19
2019-05-10T00:31:04.392Z,996.18
2019-05-10T00:32:04.375Z,996.19
2019-05-10T00:33:04.365Z,996.20
2019-05-10T00:34:04.363Z,996.19
2019-05-10T00:35:04.343Z,996.20
2019-05-10T00:36:04.341Z,996.19
2019-05-10T00:37:04.343Z,996.17
2019-05-10T00:38:04.314Z,996.16
2019-05-10T00:39:04.314Z,996.21
2019-05-10T00:40:04.289Z,996.17
2019-05-10T00:41:04.282Z,996.17
2019-05-10T00:42:04.273Z,996.17
2019-05-10T00:43:04.267Z,996.16
2019-05-10T00:44:04.255Z,996.21
2019-05-10T00:45:04.236Z,996.19
2019-05-10T00:46:04.223Z,996.19
2019-05-10T00:47:04.220Z,996.26
2019-05-10T00:48:04.206Z,996.19
2019-05-10T00:49:04.203Z,996.20
2019-05-10T00:50:04.182Z,996.15
2019-05-10T00:51:04.172Z,996.18
2019-05-10T00:52:04.160Z,996.24
2019-05-10T00:53:04.149Z,996.21
2019-05-10T00:54:04.137Z,996.20
2019-05-10T00:55:17.683Z,996.21
2019-05-10T00:56:05.116Z,996.18
2019-05-10T00:57:04.105Z,996.21
2019-05-10T00:58:04.104Z,996.22
2019-05-10T00:59:04.084Z,996.17
2019-05-10T01:00:04.088Z,996.20
2019-05-10T01:01:04.070Z,996.20
2019-05-10T01:02:04.053Z,996.25
2019-05-10T01:03:04.041Z,996.20
2019-05-10T01:04:04.034Z,996.19
2019-05-10T01:05:04.032Z,996.23
2019-05-10T01:06:04.026Z,996.20
2019-05-10T01:07:04.005Z,996.20
2019-05-10T01:08:03.990Z,996.19
2019-05-10T01:09:03.977Z,996.20
2019-05-10T01:10:03.977Z,996.20
2019-05-10T01:11:03.958Z,996.22
2019-05-10T01:12:03.945Z,996.28
2019-05-10T01:13:03.943Z,996.23
2019-05-10T01:14:03.923Z,996.24
2019-05-10T01:15:03.941Z,996.27
2019-05-10T01:16:03.912Z,996.32
2019-05-10T01:17:03.902Z,996.33
2019-05-10T01:18:03.880Z,996.31
2019-05-10T01:19:03.872Z,996.37
2019-05-10T01:20:03.869Z,996.34
2019-05-10T01:21:03.848Z,996.38
2019-05-10T01:22:03.840Z,996.41
2019-05-10T01:23:03.827Z,996.39
2019-05-10T01:24:03.816Z,996.41
2019-05-10T01:25:03.815Z,996.43
2019-05-10T01:26:03.804Z,996.45
2019-05-10T01:27:03.783Z,996.44
2019-05-10T01:28:03.778Z,996.48
2019-05-10T01:29:03.763Z,996.45
2019-05-10T01:30:03.759Z,996.45
2019-05-10T01:31:03.744Z,996.43
2019-05-10T01:32:03.735Z,996.43
2019-05-10T01:33:03.743Z,996.47
2019-05-10T01:34:03.708Z,996.42
2019-05-10T01:35:03.713Z,996.49
2019-05-10T01:36:03.688Z,996.46
2019-05-10T01:37:03.684Z,996.47
2019-05-10T01:38:03.666Z,996.42
2019-05-10T01:39:03.658Z,996.48
2019-05-10T01:40:03.652Z,996.51
2019-05-10T01:41:03.640Z,996.50
2019-05-10T01:42:03.623Z,996.49
2019-05-10T01:43:03.616Z,996.50
2019-05-10T01:44:03.602Z,996.43
2019-05-10T01:45:03.602Z,996.49
2019-05-10T01:46:03.579Z,996.47
2019-05-10T01:47:03.570Z,996.50
2019-05-10T01:48:03.561Z,996.49
2019-05-10T01:49:03.551Z,996.46
2019-05-10T01:50:03.559Z,996.48
2019-05-10T01:51:03.528Z,996.45
2019-05-10T01:52:03.515Z,996.44
2019-05-10T01:53:03.505Z,996.45
2019-05-10T01:54:03.506Z,996.49
2019-05-10T01:55:03.562Z,996.51
2019-05-10T01:56:03.487Z,996.46
2019-05-10T01:57:03.460Z,996.47
2019-05-10T01:58:03.456Z,996.46
2019-05-10T01:59:03.438Z,996.44
2019-05-10T02:00:03.430Z,996.47
2019-05-10T02:01:03.466Z,996.50
2019-05-10T02:02:03.407Z,996.48
2019-05-10T02:03:03.399Z,996.55
2019-05-10T02:04:03.388Z,996.50
2019-05-10T02:05:03.374Z,996.50
2019-05-10T02:06:03.372Z,996.53
2019-05-10T02:07:03.366Z,996.51
2019-05-10T02:08:03.343Z,996.49
2019-05-10T02:09:03.332Z,996.52
2019-05-10T02:10:03.326Z,996.51
2019-05-10T02:11:03.337Z,996.52
2019-05-10T02:12:03.308Z,996.56
2019-05-10T02:13:03.295Z,996.53
2019-05-10T02:14:03.280Z,996.53
2019-05-10T02:15:03.265Z,996.51
2019-05-10T02:16:03.264Z,996.58
2019-05-10T02:17:03.252Z,996.58
2019-05-10T02:18:03.237Z,996.54
2019-05-10T02:19:03.221Z,996.57
2019-05-10T02:20:03.212Z,996.58
2019-05-10T02:21:03.222Z,996.59
2019-05-10T02:22:03.235Z,996.60
2019-05-10T02:23:03.185Z,996.60
2019-05-10T02:24:03.175Z,996.60
2019-05-10T02:25:03.157Z,996.60
2019-05-10T02:26:09.397Z,996.61
2019-05-10T02:27:04.136Z,996.60
2019-05-10T02:28:03.124Z,996.58
2019-05-10T02:29:03.120Z,996.63
2019-05-10T02:30:03.112Z,996.64
2019-05-10T02:31:03.165Z,996.65
2019-05-10T02:32:03.083Z,996.63
2019-05-10T02:33:03.077Z,996.63
2019-05-10T02:34:03.066Z,996.67
2019-05-10T02:35:03.051Z,996.64
2019-05-10T02:36:03.049Z,996.68
2019-05-10T02:37:03.035Z,996.71
2019-05-10T02:38:03.020Z,996.70
2019-05-10T02:39:03.007Z,996.70
2019-05-10T02:40:02.994Z,996.74
2019-05-10T02:41:02.990Z,996.71
2019-05-10T02:42:02.974Z,996.73
2019-05-10T02:43:02.960Z,996.71
2019-05-10T02:44:02.950Z,996.71
2019-05-10T02:45:02.950Z,996.74
2019-05-10T02:46:02.942Z,996.79
2019-05-10T02:47:02.916Z,996.76
2019-05-10T02:48:02.909Z,996.78
2019-05-10T02:49:02.896Z,996.78
2019-05-10T02:50:02.946Z,996.80
2019-05-10T02:51:02.882Z,996.85
2019-05-10T02:52:02.898Z,996.82
2019-05-10T02:53:02.851Z,996.83
2019-05-10T02:54:02.840Z,996.82
2019-05-10T02:55:02.833Z,996.82
2019-05-10T02:56:02.827Z,996.87
2019-05-10T02:57:02.808Z,996.86
2019-05-10T02:58:02.798Z,996.86
2019-05-10T02:59:02.793Z,996.91
2019-05-10T03:00:02.785Z,996.85
2019-05-10T03:01:02.774Z,996.90
2019-05-10T03:02:02.754Z,996.89
2019-05-10T03:03:02.743Z,996.93
2019-05-10T03:04:02.742Z,996.97
2019-05-10T03:05:02.730Z,996.98
2019-05-10T03:06:02.740Z,996.96
2019-05-10T03:07:02.698Z,996.97
2019-05-10T03:08:02.766Z,996.97
2019-05-10T03:09:02.676Z,997.01
2019-05-10T03:10:02.687Z,997.00
2019-05-10T03:11:02.657Z,997.04
2019-05-10T03:12:02.661Z,997.04
2019-05-10T03:13:02.651Z,997.02
2019-05-10T03:14:02.622Z,997.02
2019-05-10T03:15:02.609Z,997.01
2019-05-10T03:16:02.601Z,997.04
2019-05-10T03:17:02.595Z,997.01
2019-05-10T03:18:02.585Z,997.04
2019-05-10T03:19:02.571Z,997.06
2019-05-10T03:20:02.555Z,997.06
2019-05-10T03:21:02.548Z,997.05
2019-05-10T03:22:02.547Z,997.08
2019-05-10T03:23:02.537Z,997.11
2019-05-10T03:24:02.516Z,997.09
2019-05-10T03:25:02.501Z,997.09
2019-05-10T03:26:02.493Z,997.07
2019-05-10T03:27:02.491Z,997.04
2019-05-10T03:28:02.469Z,997.12
2019-05-10T03:29:02.461Z,997.09
2019-05-10T03:30:02.455Z,997.11
2019-05-10T03:31:02.440Z,997.06
2019-05-10T03:32:02.443Z,997.06
2019-05-10T03:33:02.433Z,997.08
2019-05-10T03:34:02.445Z,997.06
2019-05-10T03:35:02.454Z,997.06
2019-05-10T03:36:02.393Z,997.06
2019-05-10T03:37:02.377Z,997.05
2019-05-10T03:38:02.361Z,997.04
2019-05-10T03:39:02.384Z,997.08
2019-05-10T03:40:02.354Z,997.10
2019-05-10T03:41:02.341Z,997.10
2019-05-10T03:42:02.336Z,997.13
2019-05-10T03:43:02.302Z,997.13
2019-05-10T03:44:02.293Z,997.09
2019-05-10T03:45:02.295Z,997.12
2019-05-10T03:46:02.270Z,997.13
2019-05-10T03:47:02.286Z,997.13
2019-05-10T03:48:02.246Z,997.15
2019-05-10T03:49:02.245Z,997.16
2019-05-10T03:50:02.226Z,997.18
2019-05-10T03:51:02.226Z,997.18
2019-05-10T03:52:02.215Z,997.16
2019-05-10T03:53:02.194Z,997.21
2019-05-10T03:54:02.182Z,997.19
2019-05-10T03:55:02.176Z,997.24
2019-05-10T03:56:02.161Z,997.19
2019-05-10T03:57:12.890Z,997.25
2019-05-10T03:58:03.143Z,997.28
2019-05-10T03:59:02.126Z,997.25
2019-05-10T04:00:02.121Z,997.26
2019-05-10T04:01:02.108Z,997.25
2019-05-10T04:02:02.113Z,997.29
2019-05-10T04:03:02.085Z,997.27
2019-05-10T04:04:02.072Z,997.32
2019-05-10T04:05:02.061Z,997.34
2019-05-10T04:06:02.051Z,997.37
2019-05-10T04:07:02.048Z,997.43
2019-05-10T04:08:02.029Z,997.43
2019-05-10T04:09:02.016Z,997.52
2019-05-10T04:10:02.006Z,997.50
2019-05-10T04:11:02.003Z,997.50
2019-05-10T04:12:01.992Z,997.51
2019-05-10T04:13:01.972Z,997.53
2019-05-10T04:14:01.962Z,997.54
2019-05-10T04:15:01.962Z,997.57
2019-05-10T04:16:01.951Z,997.59
2019-05-10T04:17:01.941Z,997.56
2019-05-10T04:18:01.926Z,997.58
2019-05-10T04:19:01.908Z,997.55
2019-05-10T04:20:01.903Z,997.57
2019-05-10T04:21:01.910Z,997.58
2019-05-10T04:22:01.877Z,997.63
2019-05-10T04:23:01.873Z,997.63
2019-05-10T04:24:01.853Z,997.60
2019-05-10T04:25:01.842Z,997.57
2019-05-10T04:26:01.835Z,997.59
2019-05-10T04:27:01.825Z,997.62
2019-05-10T04:28:01.820Z,997.64
2019-05-10T04:29:01.805Z,997.64
2019-05-10T04:30:01.801Z,997.67
2019-05-10T04:31:01.778Z,997.70
2019-05-10T04:32:01.765Z,997.67
2019-05-10T04:33:01.762Z,997.69
2019-05-10T04:34:01.749Z,997.71
2019-05-10T04:35:01.745Z,997.74
2019-05-10T04:36:01.724Z,997.73
2019-05-10T04:37:01.713Z,997.79
2019-05-10T04:38:01.711Z,997.82
2019-05-10T04:39:01.690Z,997.78
2019-05-10T04:40:01.690Z,997.86
2019-05-10T04:41:01.684Z,997.81
2019-05-10T04:42:01.657Z,997.81
2019-05-10T04:43:01.655Z,997.85
2019-05-10T04:44:01.663Z,997.86
2019-05-10T04:45:01.638Z,997.89
2019-05-10T04:46:01.620Z,997.92
2019-05-10T04:47:01.603Z,997.90
2019-05-10T04:48:01.600Z,997.88
2019-05-10T04:49:01.589Z,997.91
2019-05-10T04:50:01.590Z,997.95
2019-05-10T04:51:01.565Z,997.93
2019-05-10T04:52:01.559Z,997.96
2019-05-10T04:53:01.546Z,997.94
2019-05-10T04:54:01.526Z,998.02
2019-05-10T04:55:01.546Z,998.00
2019-05-10T04:56:01.505Z,997.99
2019-05-10T04:57:01.506Z,998.02
2019-05-10T04:58:01.490Z,997.98
2019-05-10T04:59:01.471Z,998.01
2019-05-10T05:00:01.462Z,997.93
2019-05-10T05:01:01.451Z,998.00
2019-05-10T05:02:01.440Z,997.99
2019-05-10T05:03:01.558Z,998.00
2019-05-10T05:04:01.417Z,997.99
2019-05-10T05:05:01.408Z,997.97
2019-05-10T05:06:01.399Z,998.03
2019-05-10T05:07:01.384Z,998.02
2019-05-10T05:08:01.381Z,998.02
2019-05-10T05:09:01.362Z,998.04
2019-05-10T05:10:01.355Z,998.07
2019-05-10T05:11:01.355Z,998.07
2019-05-10T05:12:01.335Z,998.12
2019-05-10T05:13:01.327Z,998.11
2019-05-10T05:14:01.321Z,998.08
2019-05-10T05:15:01.298Z,998.14
2019-05-10T05:16:01.287Z,998.14
2019-05-10T05:17:01.276Z,998.15
2019-05-10T05:18:01.278Z,998.16
2019-05-10T05:19:01.254Z,998.16
2019-05-10T05:20:01.244Z,998.14
2019-05-10T05:21:01.262Z,998.16
2019-05-10T05:22:01.224Z,998.18
2019-05-10T05:23:01.226Z,998.17
2019-05-10T05:24:01.206Z,998.16
2019-05-10T05:25:01.660Z,998.17
2019-05-10T05:26:02.089Z,998.15
2019-05-10T05:27:01.169Z,998.16
2019-05-10T05:28:07.918Z,998.10
2019-05-10T05:29:02.148Z,998.12
2019-05-10T05:30:01.137Z,998.17
2019-05-10T05:31:01.126Z,998.22
2019-05-10T05:32:03.582Z,998.18
2019-05-10T05:33:01.121Z,998.22
2019-05-10T05:34:04.936Z,998.21
2019-05-10T05:35:02.088Z,998.27
2019-05-10T05:36:02.288Z,998.26
2019-05-10T05:37:01.063Z,998.27
2019-05-10T05:38:01.054Z,998.32
2019-05-10T05:39:01.050Z,998.34
2019-05-10T05:40:01.030Z,998.35
2019-05-10T05:41:01.019Z,998.37
2019-05-10T05:42:01.012Z,998.33
2019-05-10T05:43:02.635Z,998.36
2019-05-10T05:44:01.998Z,998.38
2019-05-10T05:45:00.975Z,998.40
2019-05-10T05:46:00.964Z,998.42
2019-05-10T05:47:04.399Z,998.45
2019-05-10T05:48:00.941Z,998.36
2019-05-10T05:49:00.940Z,998.38
2019-05-10T05:50:00.920Z,998.39
2019-05-10T05:51:00.908Z,998.45
2019-05-10T05:52:00.897Z,998.45
2019-05-10T05:53:00.885Z,998.48
2019-05-10T05:54:03.897Z,998.45
2019-05-10T05:55:00.864Z,998.50
2019-05-10T05:56:03.612Z,998.47
2019-05-10T05:57:01.853Z,998.50
2019-05-10T05:58:04.840Z,998.51
2019-05-10T05:59:01.829Z,998.54
2019-05-10T06:00:03.994Z,998.51
2019-05-10T06:01:01.803Z,998.56
2019-05-10T06:02:07.165Z,998.58
2019-05-10T06:03:01.772Z,998.53
2019-05-10T06:04:06.475Z,998.57
2019-05-10T06:05:01.752Z,998.56
2019-05-10T06:06:00.740Z,998.59
2019-05-10T06:07:00.737Z,998.56
2019-05-10T06:08:00.720Z,998.59
2019-05-10T06:09:01.707Z,998.80
2019-05-10T06:10:00.704Z,998.81
2019-05-10T06:11:00.686Z,998.67
2019-05-10T06:12:00.676Z,998.65
2019-05-10T06:13:00.665Z,998.68
2019-05-10T06:14:03.585Z,998.80
2019-05-10T06:15:01.645Z,998.75
2019-05-10T06:16:06.139Z,998.88
2019-05-10T06:17:01.620Z,998.99
2019-05-10T06:18:03.637Z,998.79
2019-05-10T06:19:01.609Z,998.75
2019-05-10T06:20:05.594Z,998.80
2019-05-10T06:21:01.577Z,998.79
2019-05-10T06:22:04.772Z,998.75
2019-05-10T06:23:06.948Z,998.75
2019-05-10T06:24:01.555Z,998.75
2019-05-10T06:25:00.534Z,998.80
2019-05-10T06:26:00.526Z,998.79
2019-05-10T06:27:03.356Z,998.76
2019-05-10T06:28:00.510Z,998.82
2019-05-10T06:29:04.299Z,998.83
2019-05-10T06:30:00.479Z,998.88
2019-05-10T06:31:00.468Z,998.83
2019-05-10T06:32:00.461Z,998.88
2019-05-10T06:33:11.308Z,998.84
2019-05-10T06:34:01.445Z,998.83
2019-05-10T06:35:00.427Z,998.85
2019-05-10T06:36:00.417Z,998.87
2019-05-10T06:37:00.405Z,998.87
2019-05-10T06:38:00.399Z,998.89
2019-05-10T06:39:00.475Z,998.94
2019-05-10T06:40:00.372Z,998.88
2019-05-10T06:41:00.359Z,998.92
2019-05-10T06:42:00.351Z,998.91
2019-05-10T06:43:00.337Z,998.94
2019-05-10T06:44:00.331Z,998.93
2019-05-10T06:45:05.046Z,998.98
2019-05-10T06:46:01.305Z,998.92
2019-05-10T06:47:02.267Z,998.94
2019-05-10T06:48:01.280Z,998.97
2019-05-10T06:49:07.387Z,998.94
2019-05-10T06:50:01.306Z,998.98
2019-05-10T06:51:03.082Z,999.01
2019-05-10T06:52:01.239Z,999.06
2019-05-10T06:53:06.671Z,999.11
2019-05-10T06:54:01.224Z,999.08
2019-05-10T06:55:00.226Z,999.09
2019-05-10T06:56:00.195Z,999.05
2019-05-10T06:57:00.185Z,999.04
2019-05-10T06:58:00.955Z,999.06
2019-05-10T06:59:12.417Z,999.01
2019-05-10T07:00:06.115Z,999.08
2019-05-10T07:01:01.142Z,999.04
2019-05-10T07:02:00.130Z,999.04
2019-05-10T07:03:00.122Z,999.04
2019-05-10T07:04:00.111Z,999.01
2019-05-10T07:05:00.107Z,998.99
2019-05-10T07:06:00.087Z,999.00
2019-05-10T07:07:00.083Z,999.03
2019-05-10T07:08:13.961Z,998.98
2019-05-10T07:09:01.055Z,999.03
2019-05-10T07:10:08.309Z,999.02
2019-05-10T07:11:01.032Z,998.98
2019-05-10T07:12:00.023Z,999.01
2019-05-10T07:13:03.402Z,999.04
2019-05-10T07:14:01.004Z,999.04
2019-05-10T07:15:03.597Z,999.03
2019-05-10T07:16:00.995Z,999.02
2019-05-10T07:17:02.617Z,999.07
2019-05-10T07:18:00.025Z,999.07
2019-05-10T07:19:00.780Z,999.09
2019-05-10T07:19:59.944Z,999.09
2019-05-10T07:21:00.923Z,999.05
2019-05-10T07:22:00.914Z,999.04
2019-05-10T07:23:05.626Z,999.04
2019-05-10T07:24:00.892Z,999.10
2019-05-10T07:25:04.093Z,999.12
2019-05-10T07:25:59.871Z,999.08
2019-05-10T07:27:02.054Z,999.08
2019-05-10T07:27:59.850Z,999.10
2019-05-10T07:28:59.840Z,999.14
2019-05-10T07:29:59.914Z,999.08
2019-05-10T07:30:59.817Z,999.09
2019-05-10T07:31:59.902Z,999.14
2019-05-10T07:33:01.762Z,999.18
2019-05-10T07:33:59.784Z,999.23
2019-05-10T07:35:01.010Z,999.24
2019-05-10T07:35:59.763Z,999.28
2019-05-10T07:37:01.797Z,999.29
2019-05-10T07:37:59.747Z,999.27
2019-05-10T07:39:02.749Z,999.24
2019-05-10T07:40:03.375Z,999.30
2019-05-10T07:40:59.709Z,999.31
2019-05-10T07:42:00.457Z,999.28
2019-05-10T07:43:00.684Z,999.32
2019-05-10T07:44:00.496Z,999.34
2019-05-10T07:45:00.672Z,999.42
2019-05-10T07:46:06.244Z,999.33
2019-05-10T07:47:00.641Z,999.35
2019-05-10T07:48:02.571Z,999.42
2019-05-10T07:49:00.621Z,999.41
2019-05-10T07:50:03.987Z,999.43
2019-05-10T07:51:00.609Z,999.40
2019-05-10T07:52:02.229Z,999.43
2019-05-10T07:52:59.577Z,999.44
2019-05-10T07:54:04.750Z,999.46
2019-05-10T07:55:00.575Z,999.49
2019-05-10T07:55:59.804Z,999.52
2019-05-10T07:57:00.533Z,999.52
2019-05-10T07:58:04.944Z,999.55
2019-05-10T07:59:00.860Z,999.56
2019-05-10T08:00:03.527Z,999.53
2019-05-10T08:01:00.498Z,999.55
2019-05-10T08:01:59.480Z,999.55
2019-05-10T08:03:12.409Z,999.56
2019-05-10T08:04:00.458Z,999.57
2019-05-10T08:04:59.446Z,999.61
2019-05-10T08:06:02.059Z,999.56
2019-05-10T08:06:59.816Z,999.64
2019-05-10T08:07:59.415Z,999.65
2019-05-10T08:09:03.384Z,999.66
2019-05-10T08:10:00.392Z,999.67
2019-05-10T08:10:59.455Z,999.64
2019-05-10T08:12:03.804Z,999.68
2019-05-10T08:13:03.580Z,999.70
2019-05-10T08:14:06.081Z,999.70
2019-05-10T08:15:00.338Z,999.71
2019-05-10T08:15:59.513Z,999.72
2019-05-10T08:17:05.976Z,999.73
2019-05-10T08:18:00.304Z,999.76
2019-05-10T08:19:00.910Z,999.79
2019-05-10T08:19:59.289Z,999.83
2019-05-10T08:21:02.475Z,999.83
2019-05-10T08:22:01.923Z,999.85
2019-05-10T08:22:59.252Z,999.88
2019-05-10T08:24:05.118Z,999.89
2019-05-10T08:25:02.317Z,999.87
2019-05-10T08:25:59.227Z,999.88
2019-05-10T08:27:10.350Z,999.89
2019-05-10T08:28:03.384Z,999.91
2019-05-10T08:29:02.087Z,999.97
2019-05-10T08:30:18.074Z,999.96
2019-05-10T08:31:02.333Z,999.99
2019-05-10T08:31:59.153Z,999.97
2019-05-10T08:33:00.190Z,1000.04
2019-05-10T08:34:02.144Z,1000.05
2019-05-10T08:34:59.117Z,1000.04
2019-05-10T08:36:02.899Z,1000.08
2019-05-10T08:37:02.439Z,1000.06
2019-05-10T08:37:59.085Z,1000.01
2019-05-10T08:39:07.593Z,999.99
2019-05-10T08:40:00.062Z,1000.00
2019-05-10T08:40:59.060Z,1000.01
2019-05-10T08:42:04.814Z,999.99
2019-05-10T08:43:04.910Z,1000.01
2019-05-10T08:44:02.374Z,1000.01
2019-05-10T08:45:03.589Z,1000.04
2019-05-10T08:46:02.503Z,1000.03
2019-05-10T08:46:58.989Z,1000.02
2019-05-10T08:48:01.038Z,1000.01
2019-05-10T08:49:02.097Z,1000.01
2019-05-10T08:50:11.829Z,1000.01
2019-05-10T08:51:05.616Z,1000.05
2019-05-10T08:51:59.944Z,1000.03
2019-05-10T08:53:02.324Z,1000.02
2019-05-10T08:54:01.773Z,999.97
2019-05-10T08:54:58.914Z,1000.02
2019-05-10T08:55:59.194Z,999.98
2019-05-10T08:57:01.367Z,999.98
2019-05-10T08:57:59.867Z,1000.03
2019-05-10T08:58:58.856Z,1000.06
2019-05-10T09:00:06.990Z,1000.02
2019-05-10T09:01:15.471Z,999.99
2019-05-10T09:02:02.206Z,1000.11
2019-05-10T09:03:01.029Z,1000.11
2019-05-10T09:04:06.118Z,1000.08
2019-05-10T09:05:02.410Z,1000.06
2019-05-10T09:06:03.521Z,1000.08
2019-05-10T09:07:02.179Z,1000.16
2019-05-10T09:07:58.759Z,1000.13
2019-05-10T09:09:03.466Z,1000.15
2019-05-10T09:10:02.097Z,1000.19
2019-05-10T09:10:58.727Z,1000.12
2019-05-10T09:12:04.093Z,1000.20
2019-05-10T09:12:59.705Z,1000.21
2019-05-10T09:13:58.694Z,1000.19
2019-05-10T09:15:08.375Z,1000.19
2019-05-10T09:16:02.240Z,1000.22
2019-05-10T09:17:01.817Z,1000.23
2019-05-10T09:18:04.336Z,1000.24
2019-05-10T09:19:02.376Z,1000.22
2019-05-10T09:19:58.633Z,1000.26
2019-05-10T09:21:00.376Z,1000.24
2019-05-10T09:22:01.772Z,1000.29
2019-05-10T09:22:58.596Z,1000.29
2019-05-10T09:24:04.874Z,1000.29
2019-05-10T09:25:01.670Z,1000.27
2019-05-10T09:26:03.692Z,1000.29
2019-05-10T09:27:01.718Z,1000.31
2019-05-10T09:28:02.385Z,1000.29
2019-05-10T09:29:01.577Z,1000.32
2019-05-10T09:29:58.521Z,1000.33
2019-05-10T09:31:15.327Z,1000.36
2019-05-10T09:32:03.732Z,1000.31
2019-05-10T09:33:00.992Z,1000.33
2019-05-10T09:34:01.965Z,1000.34
2019-05-10T09:34:59.896Z,1000.34
2019-05-10T09:35:59.513Z,1000.34
2019-05-10T09:36:58.458Z,1000.35
2019-05-10T09:37:58.789Z,1000.37
2019-05-10T09:38:58.426Z,1000.39
2019-05-10T09:40:08.108Z,1000.38
2019-05-10T09:40:59.401Z,1000.36
2019-05-10T09:41:58.401Z,1000.33
2019-05-10T09:42:59.384Z,1000.34
2019-05-10T09:43:59.366Z,1000.32
2019-05-10T09:44:58.357Z,1000.32
2019-05-10T09:45:58.347Z,1000.36
2019-05-10T09:46:58.343Z,1000.36
2019-05-10T09:47:58.325Z,1000.37
2019-05-10T09:49:05.967Z,1000.34
2019-05-10T09:49:59.302Z,1000.36
2019-05-10T09:51:00.661Z,1000.37
2019-05-10T09:52:04.485Z,1000.38
2019-05-10T09:52:59.269Z,1000.38
2019-05-10T09:54:00.391Z,1000.37
2019-05-10T09:54:58.253Z,1000.38
2019-05-10T09:56:02.647Z,1000.42
2019-05-10T09:56:58.257Z,1000.42
2019-05-10T09:57:58.473Z,1000.39
2019-05-10T09:58:58.597Z,1000.45
2019-05-10T09:59:58.194Z,1000.48
2019-05-10T10:01:13.400Z,1000.42
2019-05-10T10:01:59.181Z,1000.47
2019-05-10T10:03:01.550Z,1000.47
2019-05-10T10:04:01.644Z,1000.52
2019-05-10T10:04:58.961Z,1000.48
2019-05-10T10:06:05.566Z,1000.51
2019-05-10T10:06:59.118Z,1000.50
2019-05-10T10:07:58.122Z,1000.52
2019-05-10T10:09:00.719Z,1000.49
2019-05-10T10:09:58.089Z,1000.50
2019-05-10T10:11:01.139Z,1000.52
2019-05-10T10:12:02.805Z,1000.53
2019-05-10T10:13:07.661Z,1000.56
2019-05-10T10:14:02.022Z,1000.57
2019-05-10T10:14:58.038Z,1000.56
2019-05-10T10:15:58.264Z,1000.59
2019-05-10T10:17:02.758Z,1000.54
2019-05-10T10:17:59.009Z,1000.57
2019-05-10T10:18:57.989Z,1000.66
2019-05-10T10:19:58.024Z,1000.65
2019-05-10T10:20:57.975Z,1000.69
2019-05-10T10:21:57.958Z,1000.74
2019-05-10T10:22:57.959Z,1000.79
2019-05-10T10:24:00.361Z,1000.80
2019-05-10T10:25:00.657Z,1000.83
2019-05-10T10:25:58.135Z,1000.84
2019-05-10T10:26:58.187Z,1000.87
2019-05-10T10:27:57.899Z,1000.89
2019-05-10T10:29:00.147Z,1000.89
2019-05-10T10:29:57.869Z,1000.90
2019-05-10T10:31:03.450Z,1000.90
2019-05-10T10:31:59.152Z,1000.90
2019-05-10T10:32:58.148Z,1000.92
2019-05-10T10:34:00.397Z,1001.00
2019-05-10T10:34:58.815Z,1000.97
2019-05-10T10:36:04.623Z,1001.04
2019-05-10T10:36:58.790Z,1001.01
2019-05-10T10:38:02.974Z,1001.03
2019-05-10T10:38:59.644Z,1001.02
2019-05-10T10:40:00.760Z,1000.98
2019-05-10T10:40:58.753Z,1000.99
2019-05-10T10:42:02.369Z,1001.03
2019-05-10T10:42:58.731Z,1000.97
2019-05-10T10:43:58.432Z,1000.97
2019-05-10T10:44:57.705Z,1000.97
2019-05-10T10:45:57.691Z,1001.00
2019-05-10T10:46:58.279Z,1001.00
2019-05-10T10:47:57.795Z,1001.00
2019-05-10T10:48:57.660Z,1001.01
2019-05-10T10:49:57.975Z,1001.03
2019-05-10T10:50:58.583Z,1001.03
2019-05-10T10:51:57.627Z,1001.04
2019-05-10T10:52:57.637Z,1001.05
2019-05-10T10:53:58.302Z,1001.07
2019-05-10T10:54:57.774Z,1001.07
2019-05-10T10:56:03.605Z,1001.05
2019-05-10T10:56:59.615Z,1001.09
2019-05-10T10:57:57.769Z,1001.08
2019-05-10T10:58:58.057Z,1001.04
2019-05-10T10:59:57.586Z,1001.01
2019-05-10T11:00:57.577Z,1001.00
2019-05-10T11:02:27.497Z,1001.02
2019-05-10T11:02:58.536Z,1001.02
2019-05-10T11:03:57.497Z,1001.02
2019-05-10T11:04:57.483Z,1000.94
2019-05-10T11:05:57.473Z,1000.97
2019-05-10T11:07:09.937Z,1001.01
2019-05-10T11:08:00.897Z,1000.99
2019-05-10T11:08:57.448Z,1001.08
2019-05-10T11:10:08.357Z,1001.10
2019-05-10T11:11:00.424Z,1001.09
2019-05-10T11:11:57.409Z,1001.03
2019-05-10T11:13:02.823Z,1001.07
2019-05-10T11:14:06.398Z,1001.06
2019-05-10T11:14:58.373Z,1001.11
2019-05-10T11:15:58.933Z,1001.09
2019-05-10T11:16:58.353Z,1001.11
2019-05-10T11:17:57.344Z,1001.10
2019-05-10T11:18:57.340Z,1001.15
2019-05-10T11:19:57.319Z,1001.13
2019-05-10T11:20:57.316Z,1001.19
2019-05-10T11:22:02.165Z,1001.15
2019-05-10T11:22:58.287Z,1001.15
2019-05-10T11:23:57.286Z,1001.09
2019-05-10T11:25:04.370Z,1001.15
2019-05-10T11:25:58.254Z,1001.14
2019-05-10T11:26:57.245Z,1001.16
2019-05-10T11:27:59.218Z,1001.12
2019-05-10T11:28:57.230Z,1001.13
2019-05-10T11:29:57.211Z,1001.17
2019-05-10T11:30:57.199Z,1001.19
2019-05-10T11:32:12.133Z,1001.20
2019-05-10T11:33:00.393Z,1001.23
2019-05-10T11:34:00.914Z,1001.21
2019-05-10T11:34:57.168Z,1001.23
2019-05-10T11:35:57.773Z,1001.25
2019-05-10T11:36:58.133Z,1001.17
2019-05-10T11:37:57.124Z,1001.22
2019-05-10T11:38:58.757Z,1001.17
2019-05-10T11:39:57.132Z,1001.20
2019-05-10T11:40:57.091Z,1001.25
2019-05-10T11:42:02.023Z,1001.27
2019-05-10T11:42:58.069Z,1001.29
2019-05-10T11:43:58.082Z,1001.34
2019-05-10T11:45:00.174Z,1001.34
2019-05-10T11:45:57.037Z,1001.31
2019-05-10T11:46:57.029Z,1001.30
2019-05-10T11:47:59.154Z,1001.31
2019-05-10T11:48:57.005Z,1001.31
2019-05-10T11:49:57.015Z,1001.25
2019-05-10T11:50:56.982Z,1001.33
2019-05-10T11:51:58.634Z,1001.32
2019-05-10T11:52:56.964Z,1001.30
2019-05-10T11:53:59.613Z,1001.36
2019-05-10T11:54:56.952Z,1001.27
2019-05-10T11:55:56.930Z,1001.31
2019-05-10T11:56:58.586Z,1001.27
2019-05-10T11:58:03.210Z,1001.30
2019-05-10T11:58:57.909Z,1001.29
2019-05-10T11:59:56.895Z,1001.29
2019-05-10T12:01:02.376Z,1001.31
2019-05-10T12:02:00.520Z,1001.36
2019-05-10T12:03:11.245Z,1001.38
2019-05-10T12:03:57.842Z,1001.36
2019-05-10T12:05:03.650Z,1001.39
2019-05-10T12:06:06.162Z,1001.37
2019-05-10T12:06:57.871Z,1001.35
2019-05-10T12:07:56.810Z,1001.37
2019-05-10T12:09:01.111Z,1001.39
2019-05-10T12:11:10.216Z,1001.46
2019-05-10T12:11:57.757Z,1001.47
2019-05-10T12:13:08.432Z,1001.43
2019-05-10T12:13:57.756Z,1001.44
2019-05-10T12:14:56.734Z,1001.45
2019-05-10T12:15:56.712Z,1001.43
2019-05-10T12:16:56.701Z,1001.47
2019-05-10T12:19:06.489Z,1001.41
2019-05-10T12:19:57.687Z,1001.41
2019-05-10T12:21:57.716Z,1001.37
2019-05-10T12:22:56.635Z,1001.37
2019-05-10T12:23:56.884Z,1001.39